sensor_id;sensor_type;location;lat;lon;timestamp;P1;durP1;ratioP1;P2;durP2;ratioP2
59294;SDS011;45067;44.654;20.200;2024-01-16T00:15:52;21.15;;;10.05;;
59294;SDS011;45067;44.654;20.200;2024-01-16T00:18:44;20.35;;;11.27;;
59294;SDS011;45067;44.654;20.200;2024-01-16T00:21:32;26.08;;;14.43;;
59294;SDS011;45067;44.654;20.200;2024-01-16T00:30:14;19.75;;;10.75;;
59294;SDS011;45067;44.654;20.200;2024-01-16T00:35:58;20.63;;;12.43;;
59294;SDS011;45067;44.654;20.200;2024-01-16T00:42:02;22.50;;;11.82;;
59294;SDS011;45067;44.654;20.200;2024-01-16T01:11:13;13.57;;;9.45;;
59294;SDS011;45067;44.654;20.200;2024-01-16T01:13:58;15.57;;;9.70;;
59294;SDS011;45067;44.654;20.200;2024-01-16T01:16:33;13.77;;;8.68;;
59294;SDS011;45067;44.654;20.200;2024-01-16T01:30:39;14.80;;;8.65;;
59294;SDS011;45067;44.654;20.200;2024-01-16T01:33:35;15.63;;;9.30;;
59294;SDS011;45067;44.654;20.200;2024-01-16T01:41:47;12.70;;;7.78;;
59294;SDS011;45067;44.654;20.200;2024-01-16T01:44:35;12.77;;;7.60;;
59294;SDS011;45067;44.654;20.200;2024-01-16T01:52:32;11.77;;;7.45;;
59294;SDS011;45067;44.654;20.200;2024-01-16T01:55:43;10.50;;;6.90;;
59294;SDS011;45067;44.654;20.200;2024-01-16T02:06:27;11.02;;;6.50;;
59294;SDS011;45067;44.654;20.200;2024-01-16T02:12:03;10.88;;;6.60;;
59294;SDS011;45067;44.654;20.200;2024-01-16T02:22:47;7.72;;;5.03;;
59294;SDS011;45067;44.654;20.200;2024-01-16T02:28:56;8.13;;;4.97;;
59294;SDS011;45067;44.654;20.200;2024-01-16T02:31:49;8.55;;;5.20;;
59294;SDS011;45067;44.654;20.200;2024-01-16T02:47:58;10.77;;;5.55;;
59294;SDS011;45067;44.654;20.200;2024-01-16T02:50:41;8.70;;;5.40;;
59294;SDS011;45067;44.654;20.200;2024-01-16T03:22:59;10.95;;;6.40;;
59294;SDS011;45067;44.654;20.200;2024-01-16T03:32:16;10.55;;;6.05;;
59294;SDS011;45067;44.654;20.200;2024-01-16T03:34:56;9.43;;;6.43;;
59294;SDS011;45067;44.654;20.200;2024-01-16T03:40:29;8.95;;;5.53;;
59294;SDS011;45067;44.654;20.200;2024-01-16T03:43:23;12.15;;;7.55;;
59294;SDS011;45067;44.654;20.200;2024-01-16T03:45:52;11.25;;;6.97;;
59294;SDS011;45067;44.654;20.200;2024-01-16T03:48:24;9.88;;;6.03;;
59294;SDS011;45067;44.654;20.200;2024-01-16T03:51:12;18.15;;;9.23;;
59294;SDS011;45067;44.654;20.200;2024-01-16T03:53:41;21.73;;;12.07;;
59294;SDS011;45067;44.654;20.200;2024-01-16T03:56:07;19.90;;;10.07;;
59294;SDS011;45067;44.654;20.200;2024-01-16T03:58:34;11.75;;;7.18;;
59294;SDS011;45067;44.654;20.200;2024-01-16T04:01:00;13.75;;;8.32;;
59294;SDS011;45067;44.654;20.200;2024-01-16T04:03:28;10.32;;;6.55;;
59294;SDS011;45067;44.654;20.200;2024-01-16T04:05:54;10.05;;;6.47;;
59294;SDS011;45067;44.654;20.200;2024-01-16T04:08:41;12.05;;;7.05;;
59294;SDS011;45067;44.654;20.200;2024-01-16T04:11:14;12.60;;;6.32;;
59294;SDS011;45067;44.654;20.200;2024-01-16T04:13:42;13.55;;;7.60;;
59294;SDS011;45067;44.654;20.200;2024-01-16T04:16:12;12.77;;;7.80;;
59294;SDS011;45067;44.654;20.200;2024-01-16T04:18:42;12.63;;;7.25;;
59294;SDS011;45067;44.654;20.200;2024-01-16T04:21:12;11.93;;;6.90;;
59294;SDS011;45067;44.654;20.200;2024-01-16T04:23:58;13.20;;;7.07;;
59294;SDS011;45067;44.654;20.200;2024-01-16T04:29:02;8.77;;;5.72;;
59294;SDS011;45067;44.654;20.200;2024-01-16T04:31:56;9.45;;;5.18;;
59294;SDS011;45067;44.654;20.200;2024-01-16T04:34:31;10.52;;;5.90;;
59294;SDS011;45067;44.654;20.200;2024-01-16T04:37:00;11.18;;;6.60;;
59294;SDS011;45067;44.654;20.200;2024-01-16T04:42:35;13.95;;;6.65;;
59294;SDS011;45067;44.654;20.200;2024-01-16T04:45:21;11.82;;;6.93;;
59294;SDS011;45067;44.654;20.200;2024-01-16T04:47:49;12.80;;;7.47;;
59294;SDS011;45067;44.654;20.200;2024-01-16T04:53:20;12.13;;;6.45;;
59294;SDS011;45067;44.654;20.200;2024-01-16T04:55:47;11.73;;;6.80;;
59294;SDS011;45067;44.654;20.200;2024-01-16T04:58:42;14.30;;;7.45;;
59294;SDS011;45067;44.654;20.200;2024-01-16T05:01:14;15.60;;;8.05;;
59294;SDS011;45067;44.654;20.200;2024-01-16T05:03:43;11.88;;;6.88;;
59294;SDS011;45067;44.654;20.200;2024-01-16T05:11:52;13.52;;;7.50;;
59294;SDS011;45067;44.654;20.200;2024-01-16T05:14:22;14.35;;;8.50;;
59294;SDS011;45067;44.654;20.200;2024-01-16T05:16:50;11.60;;;6.72;;
59294;SDS011;45067;44.654;20.200;2024-01-16T05:19:23;14.93;;;7.53;;
59294;SDS011;45067;44.654;20.200;2024-01-16T05:21:52;15.52;;;8.10;;
59294;SDS011;45067;44.654;20.200;2024-01-16T05:30:18;9.85;;;6.07;;
59294;SDS011;45067;44.654;20.200;2024-01-16T05:33:19;12.82;;;6.78;;
59294;SDS011;45067;44.654;20.200;2024-01-16T05:35:53;12.40;;;7.50;;
59294;SDS011;45067;44.654;20.200;2024-01-16T05:38:22;12.32;;;7.30;;
59294;SDS011;45067;44.654;20.200;2024-01-16T05:40:48;14.27;;;8.43;;
59294;SDS011;45067;44.654;20.200;2024-01-16T05:43:16;14.75;;;9.00;;
59294;SDS011;45067;44.654;20.200;2024-01-16T05:45:43;13.85;;;7.32;;
59294;SDS011;45067;44.654;20.200;2024-01-16T05:48:09;12.82;;;7.53;;
59294;SDS011;45067;44.654;20.200;2024-01-16T05:50:36;11.88;;;7.57;;
59294;SDS011;45067;44.654;20.200;2024-01-16T05:53:03;13.90;;;7.93;;
59294;SDS011;45067;44.654;20.200;2024-01-16T05:55:42;14.07;;;7.38;;
59294;SDS011;45067;44.654;20.200;2024-01-16T05:58:08;12.93;;;7.82;;
59294;SDS011;45067;44.654;20.200;2024-01-16T06:00:42;14.52;;;7.25;;
59294;SDS011;45067;44.654;20.200;2024-01-16T07:49:06;16.67;;;9.77;;
59294;SDS011;45067;44.654;20.200;2024-01-16T08:00:48;17.88;;;10.20;;
59294;SDS011;45067;44.654;20.200;2024-01-16T08:05:57;16.92;;;10.48;;
59294;SDS011;45067;44.654;20.200;2024-01-16T08:17:00;16.25;;;8.70;;
59294;SDS011;45067;44.654;20.200;2024-01-16T08:45:16;12.02;;;6.57;;
59294;SDS011;45067;44.654;20.200;2024-01-16T08:48:05;9.82;;;6.30;;
59294;SDS011;45067;44.654;20.200;2024-01-16T08:50:42;8.43;;;5.80;;
59294;SDS011;45067;44.654;20.200;2024-01-16T09:01:23;10.57;;;6.50;;
59294;SDS011;45067;44.654;20.200;2024-01-16T09:16:02;13.50;;;7.80;;
59294;SDS011;45067;44.654;20.200;2024-01-16T09:27:07;12.82;;;8.77;;
59294;SDS011;45067;44.654;20.200;2024-01-16T09:30:26;15.73;;;8.05;;
59294;SDS011;45067;44.654;20.200;2024-01-16T09:33:23;12.95;;;8.30;;
59294;SDS011;45067;44.654;20.200;2024-01-16T09:50:59;13.57;;;9.20;;
59294;SDS011;45067;44.654;20.200;2024-01-16T10:16:02;11.98;;;7.20;;
59294;SDS011;45067;44.654;20.200;2024-01-16T10:48:15;9.02;;;4.85;;
59294;SDS011;45067;44.654;20.200;2024-01-16T10:50:56;15.35;;;5.05;;
59294;SDS011;45067;44.654;20.200;2024-01-16T10:53:36;8.55;;;4.55;;
59294;SDS011;45067;44.654;20.200;2024-01-16T11:01:40;6.95;;;3.70;;
59294;SDS011;45067;44.654;20.200;2024-01-16T11:04:09;15.40;;;9.10;;
59294;SDS011;45067;44.654;20.200;2024-01-16T11:06:35;19.20;;;12.05;;
59294;SDS011;45067;44.654;20.200;2024-01-16T11:09:02;16.50;;;11.70;;
59294;SDS011;45067;44.654;20.200;2024-01-16T11:11:28;6.05;;;4.45;;
59294;SDS011;45067;44.654;20.200;2024-01-16T11:13:54;10.77;;;5.25;;
59294;SDS011;45067;44.654;20.200;2024-01-16T11:16:21;9.18;;;5.32;;
59294;SDS011;45067;44.654;20.200;2024-01-16T11:18:48;5.90;;;4.80;;
59294;SDS011;45067;44.654;20.200;2024-01-16T11:21:15;5.78;;;4.78;;
59294;SDS011;45067;44.654;20.200;2024-01-16T11:23:42;7.78;;;5.00;;
59294;SDS011;45067;44.654;20.200;2024-01-16T11:26:29;10.98;;;6.00;;
59294;SDS011;45067;44.654;20.200;2024-01-16T11:29:43;6.10;;;5.50;;
59294;SDS011;45067;44.654;20.200;2024-01-16T11:31:44;13.60;;;8.90;;
59294;SDS011;45067;44.654;20.200;2024-01-16T11:34:10;6.20;;;5.60;;
59294;SDS011;45067;44.654;20.200;2024-01-16T11:39:22;6.20;;;5.60;;
59294;SDS011;45067;44.654;20.200;2024-01-16T11:47:04;5.50;;;5.00;;
59294;SDS011;45067;44.654;20.200;2024-01-16T11:49:30;6.22;;;5.32;;
59294;SDS011;45067;44.654;20.200;2024-01-16T11:51:59;7.28;;;5.60;;
59294;SDS011;45067;44.654;20.200;2024-01-16T11:54:25;7.00;;;5.32;;
59294;SDS011;45067;44.654;20.200;2024-01-16T12:02:09;7.90;;;5.28;;
59294;SDS011;45067;44.654;20.200;2024-01-16T12:04:36;5.90;;;4.63;;
59294;SDS011;45067;44.654;20.200;2024-01-16T12:07:03;6.95;;;4.78;;
59294;SDS011;45067;44.654;20.200;2024-01-16T12:09:29;7.10;;;4.72;;
59294;SDS011;45067;44.654;20.200;2024-01-16T12:12:02;10.43;;;9.23;;
59294;SDS011;45067;44.654;20.200;2024-01-16T12:14:28;10.13;;;9.13;;
59294;SDS011;45067;44.654;20.200;2024-01-16T12:17:11;7.65;;;5.80;;
59294;SDS011;45067;44.654;20.200;2024-01-16T12:19:37;5.57;;;5.07;;
59294;SDS011;45067;44.654;20.200;2024-01-16T12:22:13;7.13;;;6.30;;
59294;SDS011;45067;44.654;20.200;2024-01-16T12:24:40;10.35;;;7.90;;
59294;SDS011;45067;44.654;20.200;2024-01-16T12:27:10;11.50;;;7.82;;
59294;SDS011;45067;44.654;20.200;2024-01-16T12:29:37;8.65;;;7.68;;
59294;SDS011;45067;44.654;20.200;2024-01-16T12:32:12;8.80;;;5.43;;
59294;SDS011;45067;44.654;20.200;2024-01-16T12:34:44;5.97;;;5.38;;
59294;SDS011;45067;44.654;20.200;2024-01-16T12:37:11;6.15;;;5.32;;
59294;SDS011;45067;44.654;20.200;2024-01-16T12:39:38;6.00;;;5.35;;
59294;SDS011;45067;44.654;20.200;2024-01-16T12:42:04;6.28;;;5.68;;
59294;SDS011;45067;44.654;20.200;2024-01-16T12:44:30;7.55;;;6.32;;
59294;SDS011;45067;44.654;20.200;2024-01-16T12:46:57;7.43;;;6.28;;
59294;SDS011;45067;44.654;20.200;2024-01-16T12:49:23;7.78;;;5.78;;
59294;SDS011;45067;44.654;20.200;2024-01-16T12:51:50;5.53;;;4.97;;
59294;SDS011;45067;44.654;20.200;2024-01-16T12:54:16;7.50;;;4.80;;
59294;SDS011;45067;44.654;20.200;2024-01-16T12:56:43;5.85;;;5.00;;
59294;SDS011;45067;44.654;20.200;2024-01-16T12:59:10;6.55;;;4.82;;
59294;SDS011;45067;44.654;20.200;2024-01-16T13:01:39;5.78;;;4.82;;
59294;SDS011;45067;44.654;20.200;2024-01-16T13:04:07;5.72;;;4.82;;
59294;SDS011;45067;44.654;20.200;2024-01-16T13:06:36;7.75;;;5.30;;
59294;SDS011;45067;44.654;20.200;2024-01-16T13:11:28;5.93;;;5.30;;
59294;SDS011;45067;44.654;20.200;2024-01-16T13:14:00;6.75;;;5.50;;
59294;SDS011;45067;44.654;20.200;2024-01-16T13:16:28;7.63;;;5.13;;
59294;SDS011;45067;44.654;20.200;2024-01-16T13:19:01;5.57;;;5.03;;
59294;SDS011;45067;44.654;20.200;2024-01-16T13:21:29;7.68;;;5.53;;
59294;SDS011;45067;44.654;20.200;2024-01-16T13:23:55;7.38;;;5.22;;
59294;SDS011;45067;44.654;20.200;2024-01-16T13:26:39;7.78;;;5.07;;
59294;SDS011;45067;44.654;20.200;2024-01-16T13:29:06;6.38;;;5.55;;
59294;SDS011;45067;44.654;20.200;2024-01-16T13:31:34;9.43;;;5.70;;
59294;SDS011;45067;44.654;20.200;2024-01-16T13:34:00;7.63;;;5.95;;
59294;SDS011;45067;44.654;20.200;2024-01-16T13:36:26;9.20;;;6.05;;
59294;SDS011;45067;44.654;20.200;2024-01-16T13:38:53;7.35;;;5.10;;
59294;SDS011;45067;44.654;20.200;2024-01-16T13:41:19;6.68;;;5.22;;
59294;SDS011;45067;44.654;20.200;2024-01-16T13:43:46;5.55;;;4.50;;
59294;SDS011;45067;44.654;20.200;2024-01-16T13:46:15;8.02;;;4.53;;
59294;SDS011;45067;44.654;20.200;2024-01-16T13:48:43;5.85;;;4.20;;
59294;SDS011;45067;44.654;20.200;2024-01-16T13:51:10;7.90;;;4.38;;
59294;SDS011;45067;44.654;20.200;2024-01-16T13:53:36;6.70;;;4.72;;
59294;SDS011;45067;44.654;20.200;2024-01-16T13:56:02;6.65;;;4.82;;
59294;SDS011;45067;44.654;20.200;2024-01-16T13:58:28;7.05;;;4.97;;
59294;SDS011;45067;44.654;20.200;2024-01-16T14:00:55;7.30;;;4.50;;
59294;SDS011;45067;44.654;20.200;2024-01-16T14:03:21;10.93;;;5.20;;
59294;SDS011;45067;44.654;20.200;2024-01-16T14:05:48;12.10;;;5.18;;
59294;SDS011;45067;44.654;20.200;2024-01-16T14:08:14;8.02;;;4.75;;
59294;SDS011;45067;44.654;20.200;2024-01-16T14:10:40;8.15;;;5.53;;
59294;SDS011;45067;44.654;20.200;2024-01-16T14:13:06;7.03;;;5.13;;
59294;SDS011;45067;44.654;20.200;2024-01-16T14:15:32;14.35;;;6.90;;
59294;SDS011;45067;44.654;20.200;2024-01-16T14:17:58;10.73;;;6.28;;
59294;SDS011;45067;44.654;20.200;2024-01-16T14:20:25;12.85;;;6.28;;
59294;SDS011;45067;44.654;20.200;2024-01-16T14:22:54;10.73;;;6.57;;
59294;SDS011;45067;44.654;20.200;2024-01-16T14:25:21;9.88;;;6.18;;
59294;SDS011;45067;44.654;20.200;2024-01-16T14:28:00;11.80;;;6.00;;
59294;SDS011;45067;44.654;20.200;2024-01-16T14:30:30;12.60;;;6.40;;
59294;SDS011;45067;44.654;20.200;2024-01-16T14:32:56;14.55;;;6.05;;
59294;SDS011;45067;44.654;20.200;2024-01-16T14:35:22;10.45;;;6.10;;
59294;SDS011;45067;44.654;20.200;2024-01-16T14:37:51;14.82;;;7.55;;
59294;SDS011;45067;44.654;20.200;2024-01-16T14:40:17;12.48;;;5.78;;
59294;SDS011;45067;44.654;20.200;2024-01-16T14:42:50;11.20;;;6.50;;
59294;SDS011;45067;44.654;20.200;2024-01-16T14:45:19;19.75;;;7.72;;
59294;SDS011;45067;44.654;20.200;2024-01-16T14:47:46;14.95;;;7.63;;
59294;SDS011;45067;44.654;20.200;2024-01-16T14:50:12;13.30;;;6.80;;
59294;SDS011;45067;44.654;20.200;2024-01-16T14:52:41;9.70;;;6.47;;
59294;SDS011;45067;44.654;20.200;2024-01-16T14:55:08;10.75;;;6.53;;
59294;SDS011;45067;44.654;20.200;2024-01-16T14:57:37;14.55;;;7.03;;
59294;SDS011;45067;44.654;20.200;2024-01-16T15:00:10;16.27;;;7.50;;
59294;SDS011;45067;44.654;20.200;2024-01-16T15:02:50;14.70;;;7.45;;
59294;SDS011;45067;44.654;20.200;2024-01-16T15:05:16;15.57;;;7.15;;
59294;SDS011;45067;44.654;20.200;2024-01-16T15:07:44;14.75;;;7.78;;
59294;SDS011;45067;44.654;20.200;2024-01-16T15:10:10;21.45;;;9.55;;
59294;SDS011;45067;44.654;20.200;2024-01-16T15:12:40;14.85;;;8.15;;
59294;SDS011;45067;44.654;20.200;2024-01-16T15:15:09;14.70;;;8.97;;
59294;SDS011;45067;44.654;20.200;2024-01-16T15:17:39;14.30;;;8.82;;
59294;SDS011;45067;44.654;20.200;2024-01-16T15:20:06;18.67;;;10.45;;
59294;SDS011;45067;44.654;20.200;2024-01-16T15:22:42;20.20;;;12.10;;
59294;SDS011;45067;44.654;20.200;2024-01-16T15:25:18;20.17;;;11.88;;
59294;SDS011;45067;44.654;20.200;2024-01-16T15:27:58;25.33;;;14.43;;
59294;SDS011;45067;44.654;20.200;2024-01-16T15:30:25;26.90;;;13.90;;
59294;SDS011;45067;44.654;20.200;2024-01-16T15:32:56;22.42;;;12.43;;
59294;SDS011;45067;44.654;20.200;2024-01-16T15:35:22;29.08;;;14.82;;
59294;SDS011;45067;44.654;20.200;2024-01-16T15:37:49;33.45;;;16.27;;
59294;SDS011;45067;44.654;20.200;2024-01-16T15:40:15;36.50;;;18.15;;
59294;SDS011;45067;44.654;20.200;2024-01-16T15:42:41;37.10;;;20.63;;
59294;SDS011;45067;44.654;20.200;2024-01-16T15:45:08;40.33;;;19.80;;
59294;SDS011;45067;44.654;20.200;2024-01-16T15:47:37;42.28;;;22.38;;
59294;SDS011;45067;44.654;20.200;2024-01-16T15:50:04;45.45;;;22.85;;
59294;SDS011;45067;44.654;20.200;2024-01-16T15:52:31;39.78;;;20.10;;
59294;SDS011;45067;44.654;20.200;2024-01-16T15:54:57;33.92;;;18.48;;
59294;SDS011;45067;44.654;20.200;2024-01-16T15:57:23;25.33;;;12.48;;
59294;SDS011;45067;44.654;20.200;2024-01-16T15:59:49;19.65;;;11.15;;
59294;SDS011;45067;44.654;20.200;2024-01-16T16:02:15;24.17;;;13.65;;
59294;SDS011;45067;44.654;20.200;2024-01-16T16:04:48;29.58;;;14.68;;
59294;SDS011;45067;44.654;20.200;2024-01-16T16:07:19;27.83;;;15.68;;
59294;SDS011;45067;44.654;20.200;2024-01-16T16:09:45;32.35;;;14.10;;
59294;SDS011;45067;44.654;20.200;2024-01-16T16:15:15;29.55;;;14.98;;
59294;SDS011;45067;44.654;20.200;2024-01-16T16:17:47;26.10;;;15.52;;
59294;SDS011;45067;44.654;20.200;2024-01-16T16:20:31;26.23;;;16.15;;
59294;SDS011;45067;44.654;20.200;2024-01-16T16:52:58;60.08;;;27.85;;
59294;SDS011;45067;44.654;20.200;2024-01-16T16:55:59;64.17;;;28.57;;
59294;SDS011;45067;44.654;20.200;2024-01-16T17:01:45;42.78;;;21.33;;
59294;SDS011;45067;44.654;20.200;2024-01-16T17:11:00;35.33;;;19.38;;
59294;SDS011;45067;44.654;20.200;2024-01-16T21:11:35;22.88;;;12.70;;
59294;SDS011;45067;44.654;20.200;2024-01-16T21:14:02;24.60;;;12.55;;
59294;SDS011;45067;44.654;20.200;2024-01-16T21:16:28;29.95;;;15.70;;
59294;SDS011;45067;44.654;20.200;2024-01-16T21:18:54;23.02;;;11.82;;
59294;SDS011;45067;44.654;20.200;2024-01-16T21:21:23;26.33;;;14.00;;
59294;SDS011;45067;44.654;20.200;2024-01-16T21:23:50;23.95;;;14.15;;
59294;SDS011;45067;44.654;20.200;2024-01-16T21:26:16;24.45;;;12.80;;
59294;SDS011;45067;44.654;20.200;2024-01-16T21:28:42;27.30;;;14.98;;
59294;SDS011;45067;44.654;20.200;2024-01-16T21:31:08;23.58;;;13.63;;
59294;SDS011;45067;44.654;20.200;2024-01-16T21:33:34;25.35;;;13.73;;
59294;SDS011;45067;44.654;20.200;2024-01-16T21:36:01;29.00;;;15.02;;
59294;SDS011;45067;44.654;20.200;2024-01-16T21:38:27;24.13;;;14.10;;
59294;SDS011;45067;44.654;20.200;2024-01-16T21:40:54;25.20;;;13.55;;
59294;SDS011;45067;44.654;20.200;2024-01-16T21:43:21;21.73;;;12.20;;
59294;SDS011;45067;44.654;20.200;2024-01-16T21:45:48;19.38;;;11.32;;
59294;SDS011;45067;44.654;20.200;2024-01-16T21:48:14;18.58;;;10.60;;
59294;SDS011;45067;44.654;20.200;2024-01-16T21:50:41;16.63;;;10.32;;
59294;SDS011;45067;44.654;20.200;2024-01-16T21:53:07;16.77;;;10.05;;
59294;SDS011;45067;44.654;20.200;2024-01-16T21:55:34;16.25;;;10.43;;
59294;SDS011;45067;44.654;20.200;2024-01-16T21:58:00;14.10;;;9.15;;
59294;SDS011;45067;44.654;20.200;2024-01-16T22:00:27;13.75;;;8.45;;
59294;SDS011;45067;44.654;20.200;2024-01-16T22:02:53;15.23;;;9.70;;
59294;SDS011;45067;44.654;20.200;2024-01-16T22:05:24;21.30;;;11.10;;
59294;SDS011;45067;44.654;20.200;2024-01-16T22:07:50;23.83;;;13.38;;
59294;SDS011;45067;44.654;20.200;2024-01-16T22:10:16;25.55;;;14.00;;
59294;SDS011;45067;44.654;20.200;2024-01-16T22:12:43;20.95;;;11.75;;
59294;SDS011;45067;44.654;20.200;2024-01-16T22:15:09;21.40;;;11.02;;
59294;SDS011;45067;44.654;20.200;2024-01-16T22:17:37;19.73;;;11.23;;
59294;SDS011;45067;44.654;20.200;2024-01-16T22:20:03;16.10;;;9.80;;
59294;SDS011;45067;44.654;20.200;2024-01-16T22:22:35;16.88;;;9.75;;
59294;SDS011;45067;44.654;20.200;2024-01-16T22:25:04;17.30;;;9.50;;
59294;SDS011;45067;44.654;20.200;2024-01-16T22:27:30;16.60;;;9.50;;
59294;SDS011;45067;44.654;20.200;2024-01-16T22:29:57;16.45;;;9.52;;
59294;SDS011;45067;44.654;20.200;2024-01-16T22:32:23;17.20;;;9.88;;
59294;SDS011;45067;44.654;20.200;2024-01-16T22:34:49;16.50;;;9.70;;
59294;SDS011;45067;44.654;20.200;2024-01-16T22:37:15;16.42;;;10.18;;
59294;SDS011;45067;44.654;20.200;2024-01-16T22:39:42;14.52;;;9.25;;
59294;SDS011;45067;44.654;20.200;2024-01-16T22:42:09;16.52;;;9.50;;
59294;SDS011;45067;44.654;20.200;2024-01-16T22:44:36;16.50;;;9.60;;
59294;SDS011;45067;44.654;20.200;2024-01-16T22:47:06;16.90;;;10.00;;
59294;SDS011;45067;44.654;20.200;2024-01-16T22:49:33;18.98;;;10.02;;
59294;SDS011;45067;44.654;20.200;2024-01-16T22:52:00;18.90;;;11.02;;
59294;SDS011;45067;44.654;20.200;2024-01-16T22:54:29;17.73;;;10.02;;
59294;SDS011;45067;44.654;20.200;2024-01-16T22:56:55;17.20;;;10.23;;
59294;SDS011;45067;44.654;20.200;2024-01-16T22:59:21;16.90;;;9.82;;
59294;SDS011;45067;44.654;20.200;2024-01-16T23:01:51;17.23;;;10.07;;
59294;SDS011;45067;44.654;20.200;2024-01-16T23:04:17;16.15;;;9.48;;
59294;SDS011;45067;44.654;20.200;2024-01-16T23:06:44;18.98;;;10.60;;
59294;SDS011;45067;44.654;20.200;2024-01-16T23:12:12;14.27;;;8.95;;
59294;SDS011;45067;44.654;20.200;2024-01-16T23:14:38;17.10;;;10.23;;
59294;SDS011;45067;44.654;20.200;2024-01-16T23:17:04;18.60;;;10.25;;
59294;SDS011;45067;44.654;20.200;2024-01-16T23:19:30;17.98;;;10.18;;
59294;SDS011;45067;44.654;20.200;2024-01-16T23:21:56;16.75;;;9.70;;
59294;SDS011;45067;44.654;20.200;2024-01-16T23:24:22;14.25;;;8.75;;
59294;SDS011;45067;44.654;20.200;2024-01-16T23:26:48;15.80;;;9.75;;
59294;SDS011;45067;44.654;20.200;2024-01-16T23:29:14;18.67;;;10.02;;
59294;SDS011;45067;44.654;20.200;2024-01-16T23:31:41;17.45;;;9.50;;
59294;SDS011;45067;44.654;20.200;2024-01-16T23:34:07;19.10;;;10.65;;
59294;SDS011;45067;44.654;20.200;2024-01-16T23:36:34;16.58;;;9.75;;
59294;SDS011;45067;44.654;20.200;2024-01-16T23:39:01;16.17;;;10.13;;
59294;SDS011;45067;44.654;20.200;2024-01-16T23:41:29;17.10;;;9.88;;
59294;SDS011;45067;44.654;20.200;2024-01-16T23:43:57;19.48;;;10.95;;
59294;SDS011;45067;44.654;20.200;2024-01-16T23:46:23;19.30;;;10.57;;
59294;SDS011;45067;44.654;20.200;2024-01-16T23:48:50;17.00;;;10.55;;
59294;SDS011;45067;44.654;20.200;2024-01-16T23:51:16;16.70;;;9.65;;
59294;SDS011;45067;44.654;20.200;2024-01-16T23:53:42;18.02;;;10.52;;
59294;SDS011;45067;44.654;20.200;2024-01-16T23:56:08;15.10;;;9.63;;
59294;SDS011;45067;44.654;20.200;2024-01-16T23:58:36;17.17;;;9.93;;
